createdAt,value
2022-07-25T00:01:25.634Z,0.80
2022-07-25T00:04:20.428Z,1.10
2022-07-25T00:07:10.601Z,0.90
2022-07-25T00:10:00.915Z,1.00
2022-07-25T00:12:51.216Z,0.80
2022-07-25T00:15:56.486Z,1.20
2022-07-25T00:18:47.402Z,1.23
2022-07-25T00:21:37.468Z,1.13
2022-07-25T00:24:27.409Z,0.50
2022-07-25T00:27:17.638Z,0.80
2022-07-25T00:30:08.095Z,1.10
2022-07-25T00:33:01.090Z,0.63
2022-07-25T00:35:51.358Z,0.63
2022-07-25T00:38:43.635Z,0.60
2022-07-25T00:41:33.699Z,0.60
2022-07-25T00:44:34.943Z,1.53
2022-07-25T00:47:25.266Z,1.30
2022-07-25T00:50:24.226Z,0.57
2022-07-25T00:53:13.455Z,0.83
2022-07-25T00:56:04.225Z,0.93
2022-07-25T00:58:54.394Z,0.60
2022-07-25T01:01:45.426Z,0.60
2022-07-25T01:04:35.683Z,1.13
2022-07-25T01:07:40.696Z,1.77
2022-07-25T01:10:33.074Z,1.03
2022-07-25T01:13:23.465Z,0.77
2022-07-25T01:16:15.935Z,0.90
2022-07-25T01:19:05.848Z,0.83
2022-07-25T01:21:59.582Z,1.63
2022-07-25T01:24:49.650Z,1.30
2022-07-25T01:27:40.955Z,1.00
2022-07-25T01:30:30.891Z,0.73
2022-07-25T01:33:21.763Z,1.17
2022-07-25T01:36:14.284Z,0.70
2022-07-25T01:39:16.262Z,0.73
2022-07-25T01:42:06.467Z,1.07
2022-07-25T01:44:56.777Z,0.63
2022-07-25T01:47:51.995Z,0.57
2022-07-25T01:50:44.790Z,0.60
2022-07-25T01:53:35.016Z,0.80
2022-07-25T01:56:33.370Z,0.97
2022-07-25T01:59:23.626Z,0.80
2022-07-25T02:02:14.399Z,0.60
2022-07-25T02:05:05.279Z,1.17
2022-07-25T02:07:55.501Z,1.07
2022-07-25T02:10:46.103Z,0.80
2022-07-25T02:13:41.069Z,0.67
2022-07-25T02:16:31.307Z,0.83
2022-07-25T02:19:21.566Z,1.93
2022-07-25T02:22:11.775Z,0.93
2022-07-25T02:25:02.417Z,0.60
2022-07-25T02:27:55.235Z,0.70
2022-07-25T02:30:50.213Z,0.70
2022-07-25T02:33:42.777Z,0.97
2022-07-25T02:36:34.175Z,0.90
2022-07-25T02:39:25.349Z,0.80
2022-07-25T02:42:16.964Z,1.23
2022-07-25T02:45:08.152Z,1.60
2022-07-25T02:48:01.920Z,0.80
2022-07-25T02:50:54.433Z,0.60
2022-07-25T02:53:57.108Z,1.53
2022-07-25T02:56:50.940Z,1.40
2022-07-25T02:59:43.521Z,0.60
2022-07-25T03:02:33.417Z,0.80
2022-07-25T03:05:27.014Z,2.10
2022-07-25T03:08:20.239Z,0.73
2022-07-25T03:11:10.938Z,1.37
2022-07-25T03:14:00.007Z,0.50
2022-07-25T03:16:50.426Z,0.77
2022-07-25T03:19:41.951Z,0.70
2022-07-25T03:22:36.970Z,0.70
2022-07-25T03:25:27.482Z,0.70
2022-07-25T03:28:22.231Z,1.43
2022-07-25T03:31:15.084Z,1.50
2022-07-25T03:34:08.498Z,0.70
2022-07-25T03:37:01.034Z,0.60
2022-07-25T03:39:56.914Z,1.10
2022-07-25T03:42:49.554Z,0.93
2022-07-25T03:45:40.056Z,1.20
2022-07-25T03:48:29.022Z,1.23
2022-07-25T03:51:19.233Z,0.80
2022-07-25T03:54:13.953Z,1.90
2022-07-25T03:57:05.633Z,0.90
2022-07-25T03:59:55.699Z,1.00
2022-07-25T04:02:45.793Z,0.80
2022-07-25T04:05:36.487Z,2.23
2022-07-25T04:08:29.206Z,1.47
2022-07-25T04:11:19.189Z,1.17
2022-07-25T04:14:10.675Z,0.90
2022-07-25T04:17:01.113Z,0.70
2022-07-25T04:19:53.752Z,2.40
2022-07-25T04:22:47.092Z,1.20
2022-07-25T04:25:37.557Z,1.10
2022-07-25T04:28:29.970Z,0.70
2022-07-25T04:31:21.445Z,1.47
2022-07-25T04:34:11.902Z,1.67
2022-07-25T04:37:02.208Z,0.87
2022-07-25T04:39:52.455Z,1.63
2022-07-25T04:42:42.717Z,1.60
2022-07-25T04:45:33.460Z,0.60
2022-07-25T04:48:26.079Z,0.60
2022-07-25T04:51:18.184Z,0.60
2022-07-25T04:54:10.182Z,0.63
2022-07-25T04:57:01.012Z,1.23
2022-07-25T04:59:51.802Z,1.63
2022-07-25T05:02:42.383Z,1.47
2022-07-25T05:05:35.816Z,0.80
2022-07-25T05:08:25.057Z,1.07
2022-07-25T05:11:15.303Z,0.70
2022-07-25T05:14:07.327Z,1.33
2022-07-25T05:17:01.906Z,1.00
2022-07-25T05:19:52.336Z,0.60
2022-07-25T05:22:43.939Z,1.57
2022-07-25T05:25:41.418Z,0.90
2022-07-25T05:28:32.984Z,0.67
2022-07-25T05:31:23.079Z,1.37
2022-07-25T05:34:13.418Z,1.30
2022-07-25T05:37:03.528Z,1.23
2022-07-25T05:39:59.295Z,0.90
2022-07-25T05:42:49.452Z,2.00
2022-07-25T05:45:39.523Z,0.70
2022-07-25T05:48:32.064Z,1.03
2022-07-25T05:51:26.746Z,0.70
2022-07-25T05:54:17.742Z,1.40
2022-07-25T05:57:09.337Z,1.93
2022-07-25T06:00:13.613Z,1.20
2022-07-25T06:03:05.497Z,1.50
2022-07-25T06:05:59.333Z,0.83
2022-07-25T06:08:49.624Z,2.10
2022-07-25T06:11:54.470Z,1.93
2022-07-25T06:14:56.341Z,1.33
2022-07-25T06:17:46.514Z,1.37
2022-07-25T06:20:36.879Z,1.30
2022-07-25T06:23:28.100Z,1.83
2022-07-25T06:26:18.600Z,2.40
2022-07-25T06:29:10.229Z,1.60
2022-07-25T06:32:01.867Z,1.20
2022-07-25T06:34:52.857Z,1.70
2022-07-25T06:37:44.096Z,2.40
2022-07-25T06:40:38.361Z,1.73
2022-07-25T06:43:28.239Z,2.23
2022-07-25T06:46:18.290Z,2.20
2022-07-25T06:49:10.070Z,1.63
2022-07-25T06:52:02.226Z,2.40
2022-07-25T06:54:59.640Z,2.63
2022-07-25T06:57:49.776Z,2.88
2022-07-25T07:00:47.549Z,2.42
2022-07-25T07:03:40.247Z,2.30
2022-07-25T07:06:35.194Z,2.47
2022-07-25T07:09:25.615Z,2.83
2022-07-25T07:12:20.106Z,2.30
2022-07-25T07:15:10.348Z,2.88
2022-07-25T07:18:00.444Z,2.38
2022-07-25T07:20:51.698Z,2.67
2022-07-25T07:23:46.813Z,3.22
2022-07-25T07:26:40.885Z,2.78
2022-07-25T07:29:29.843Z,2.20
2022-07-25T07:32:20.260Z,2.70
2022-07-25T07:35:09.728Z,2.28
2022-07-25T07:37:58.731Z,3.47
2022-07-25T07:40:48.945Z,2.83
2022-07-25T07:43:37.872Z,2.97
2022-07-25T07:46:26.874Z,2.30
2022-07-25T07:49:15.960Z,2.40
2022-07-25T07:52:06.410Z,2.42
2022-07-25T07:55:14.386Z,1.95
2022-07-25T07:58:05.075Z,2.78
2022-07-25T08:00:55.039Z,2.42
2022-07-25T08:03:45.301Z,2.30
2022-07-25T08:06:35.564Z,2.80
2022-07-25T08:09:30.307Z,3.00
2022-07-25T08:12:23.444Z,2.40
2022-07-25T08:15:15.051Z,2.67
2022-07-25T08:18:04.745Z,2.33
2022-07-25T08:21:06.427Z,2.83
2022-07-25T08:23:55.557Z,2.47
2022-07-25T08:26:44.466Z,2.28
2022-07-25T08:29:33.570Z,2.75
2022-07-25T08:32:23.839Z,2.53
2022-07-25T08:35:12.797Z,2.50
2022-07-25T08:38:02.136Z,2.83
2022-07-25T08:40:52.106Z,2.28
2022-07-25T08:43:41.192Z,3.13
2022-07-25T08:46:30.777Z,2.30
2022-07-25T08:49:21.377Z,2.85
2022-07-25T08:52:10.374Z,2.85
2022-07-25T08:54:59.495Z,2.60
2022-07-25T08:57:48.983Z,3.05
2022-07-25T09:00:38.049Z,2.58
2022-07-25T09:03:30.404Z,2.83
2022-07-25T09:06:33.121Z,3.00
2022-07-25T09:09:40.462Z,2.90
2022-07-25T09:12:30.627Z,2.40
2022-07-25T09:15:24.612Z,3.28
2022-07-25T09:18:16.044Z,2.90
2022-07-25T09:21:06.131Z,2.80
2022-07-25T09:23:56.497Z,2.63
2022-07-25T09:26:47.772Z,2.60
2022-07-25T09:29:37.236Z,2.72
2022-07-25T09:32:26.545Z,3.20
2022-07-25T09:35:15.707Z,3.00
2022-07-25T09:38:11.387Z,3.03
2022-07-25T09:41:02.787Z,3.05
2022-07-25T09:43:51.732Z,2.70
2022-07-25T09:46:40.678Z,3.10
2022-07-25T09:49:38.887Z,3.30
2022-07-25T09:52:27.897Z,3.03
2022-07-25T09:55:16.792Z,4.05
2022-07-25T09:58:07.694Z,3.30
2022-07-25T10:00:59.485Z,3.00
2022-07-25T10:03:52.067Z,2.42
2022-07-25T10:06:41.663Z,2.78
2022-07-25T10:09:30.675Z,2.83
2022-07-25T10:12:20.987Z,2.97
2022-07-25T10:15:12.141Z,3.00
2022-07-25T10:18:06.732Z,2.63
2022-07-25T10:20:57.091Z,2.63
2022-07-25T10:23:46.372Z,2.58
2022-07-25T10:26:39.249Z,3.08
2022-07-25T10:29:35.133Z,2.58
2022-07-25T10:32:27.815Z,2.83
2022-07-25T10:35:18.493Z,2.95
2022-07-25T10:38:07.940Z,2.65
2022-07-25T10:40:57.842Z,3.05
2022-07-25T10:43:48.868Z,2.95
2022-07-25T10:46:38.074Z,2.33
2022-07-25T10:49:32.237Z,2.22
2022-07-25T10:52:21.844Z,2.13
2022-07-25T10:55:11.110Z,2.70
2022-07-25T10:58:20.278Z,2.40
2022-07-25T11:01:09.403Z,2.97
2022-07-25T11:03:59.373Z,2.45
2022-07-25T11:06:49.881Z,1.83
2022-07-25T11:09:39.069Z,2.78
2022-07-25T11:12:28.143Z,2.70
2022-07-25T11:15:17.470Z,3.35
2022-07-25T11:18:06.476Z,2.80
2022-07-25T11:21:04.247Z,3.25
2022-07-25T11:23:56.439Z,3.22
2022-07-25T11:26:49.487Z,2.58
2022-07-25T11:29:40.399Z,2.95
2022-07-25T11:32:29.366Z,2.83
2022-07-25T11:35:18.617Z,3.00
2022-07-25T11:38:08.177Z,3.03
2022-07-25T11:40:58.434Z,2.80
2022-07-25T11:43:50.845Z,3.15
2022-07-25T11:46:44.014Z,3.03
2022-07-25T11:49:33.302Z,2.75
2022-07-25T11:52:23.284Z,3.13
2022-07-25T11:55:13.495Z,2.97
2022-07-25T11:58:04.751Z,3.05
2022-07-25T12:00:54.188Z,2.60
2022-07-25T12:03:43.964Z,2.30
2022-07-25T12:06:32.940Z,3.15
2022-07-25T12:09:23.019Z,2.72
2022-07-25T12:12:11.923Z,2.95
2022-07-25T12:15:03.098Z,2.53
2022-07-25T12:17:56.112Z,2.63
2022-07-25T12:20:45.514Z,2.50
2022-07-25T12:23:34.431Z,3.50
2022-07-25T12:26:23.387Z,2.63
2022-07-25T12:29:13.494Z,2.92
2022-07-25T12:32:05.203Z,3.13
2022-07-25T12:34:55.723Z,2.80
2022-07-25T12:37:45.052Z,2.45
2022-07-25T12:40:34.099Z,2.85
2022-07-25T12:43:23.066Z,2.90
2022-07-25T12:46:13.434Z,2.33
2022-07-25T12:49:05.937Z,2.22
2022-07-25T12:51:58.311Z,2.85
2022-07-25T12:54:48.549Z,2.63
2022-07-25T12:57:40.111Z,2.80
2022-07-25T13:00:30.178Z,2.47
2022-07-25T13:03:20.366Z,2.20
2022-07-25T13:06:10.766Z,2.22
2022-07-25T13:08:59.737Z,2.00
2022-07-25T13:11:48.828Z,2.40
2022-07-25T13:14:38.513Z,2.83
2022-07-25T13:17:28.083Z,2.05
2022-07-25T13:20:17.071Z,2.28
2022-07-25T13:23:07.355Z,2.28
2022-07-25T13:25:56.205Z,1.90
2022-07-25T13:28:45.133Z,2.42
2022-07-25T13:31:34.402Z,1.95
2022-07-25T13:34:23.662Z,2.03
2022-07-25T13:37:12.947Z,2.03
2022-07-25T13:40:03.261Z,2.25
2022-07-25T13:42:52.764Z,2.05
2022-07-25T13:45:42.385Z,2.25
2022-07-25T13:48:33.898Z,1.88
2022-07-25T13:51:24.112Z,2.40
2022-07-25T13:54:14.262Z,2.00
2022-07-25T13:57:08.018Z,1.92
2022-07-25T13:59:58.488Z,1.95
2022-07-25T14:02:49.032Z,1.63
2022-07-25T14:05:40.358Z,1.67
2022-07-25T14:08:30.446Z,2.03
2022-07-25T14:11:20.858Z,2.50
2022-07-25T14:14:11.062Z,1.77
2022-07-25T14:17:02.966Z,1.38
2022-07-25T14:19:53.302Z,1.65
2022-07-25T14:22:44.111Z,2.10
2022-07-25T14:25:33.091Z,2.38
2022-07-25T14:28:22.014Z,2.35
2022-07-25T14:31:12.459Z,2.78
2022-07-25T14:34:01.475Z,2.75
2022-07-25T14:36:50.603Z,2.33
2022-07-25T14:39:39.641Z,2.67
2022-07-25T14:42:28.722Z,1.73
2022-07-25T14:45:22.941Z,3.00
2022-07-25T14:48:22.543Z,2.17
2022-07-25T14:51:12.738Z,1.70
2022-07-25T14:54:02.697Z,2.15
2022-07-25T14:56:51.634Z,1.90
2022-07-25T14:59:40.581Z,1.58
2022-07-25T15:02:29.543Z,1.63
2022-07-25T15:05:19.836Z,2.22
2022-07-25T15:08:09.384Z,1.63
2022-07-25T15:10:58.312Z,1.50
2022-07-25T15:13:47.504Z,2.00
2022-07-25T15:16:36.503Z,1.50
2022-07-25T15:19:26.370Z,1.40
2022-07-25T15:22:17.289Z,1.58
2022-07-25T15:28:20.640Z,1.52
2022-07-25T15:31:12.126Z,1.40
2022-07-25T15:34:02.437Z,1.20
2022-07-25T15:36:52.444Z,1.23
2022-07-25T15:39:42.709Z,1.48
2022-07-25T15:42:35.575Z,1.67
2022-07-25T15:45:33.710Z,1.15
2022-07-25T15:48:30.203Z,1.00
2022-07-25T15:51:30.348Z,1.10
2022-07-25T15:54:35.763Z,1.10
2022-07-25T15:57:30.702Z,0.95
2022-07-25T16:00:28.990Z,1.60
2022-07-25T16:03:21.060Z,1.10
2022-07-25T16:06:15.530Z,0.77
2022-07-25T16:09:07.776Z,1.43
2022-07-25T16:11:56.947Z,0.93
2022-07-25T16:14:47.224Z,0.80
2022-07-25T16:17:38.729Z,1.00
2022-07-25T16:20:27.823Z,1.07
2022-07-25T16:23:16.794Z,1.47
2022-07-25T16:26:05.778Z,1.40
2022-07-25T16:28:57.753Z,0.70
2022-07-25T16:31:48.616Z,0.97
2022-07-25T16:34:37.560Z,0.93
2022-07-25T16:37:26.453Z,1.63
2022-07-25T16:40:15.512Z,0.77
2022-07-25T16:43:04.450Z,0.85
2022-07-25T16:45:53.524Z,1.25
2022-07-25T16:48:43.853Z,1.20
2022-07-25T16:51:36.848Z,0.97
2022-07-25T16:54:26.121Z,0.50
2022-07-25T16:57:15.011Z,0.57
2022-07-25T17:00:04.655Z,0.60
2022-07-25T17:02:55.372Z,1.03
2022-07-25T17:05:46.918Z,0.70
2022-07-25T17:08:36.441Z,0.53
2022-07-25T17:11:25.501Z,1.10
2022-07-25T17:14:14.394Z,0.80
2022-07-25T17:17:06.707Z,0.67
2022-07-25T17:20:00.007Z,0.60
2022-07-25T17:22:51.721Z,0.87
2022-07-25T17:25:46.208Z,0.60
2022-07-25T17:28:41.350Z,0.60
2022-07-25T17:31:31.651Z,0.50
2022-07-25T17:34:21.644Z,0.80
2022-07-25T17:37:10.509Z,0.70
2022-07-25T17:40:01.570Z,1.07
2022-07-25T17:42:51.958Z,0.50
2022-07-25T17:45:40.880Z,0.50
2022-07-25T17:48:29.863Z,1.13
2022-07-25T17:51:19.197Z,0.93
2022-07-25T17:54:08.442Z,0.50
2022-07-25T17:56:59.438Z,0.70
2022-07-25T17:59:48.695Z,0.50
2022-07-25T18:02:37.740Z,0.60
2022-07-25T18:05:26.827Z,0.40
2022-07-25T18:08:15.891Z,0.60
2022-07-25T18:11:04.798Z,0.90
2022-07-25T18:13:55.053Z,0.43
2022-07-25T18:16:45.523Z,0.60
2022-07-25T18:19:34.541Z,0.40
2022-07-25T18:22:23.566Z,0.50
2022-07-25T18:25:14.987Z,0.53
2022-07-25T18:28:04.096Z,0.40
2022-07-25T18:30:55.034Z,0.50
2022-07-25T18:33:43.978Z,0.50
2022-07-25T18:36:32.887Z,0.70
2022-07-25T18:39:21.815Z,0.70
2022-07-25T18:42:12.995Z,0.60
2022-07-25T18:45:03.018Z,0.73
2022-07-25T18:47:57.233Z,0.50
2022-07-25T18:50:55.572Z,0.60
2022-07-25T18:53:48.956Z,0.50
2022-07-25T18:56:39.526Z,0.50
2022-07-25T18:59:29.863Z,0.40
2022-07-25T19:02:27.533Z,0.47
2022-07-25T19:05:19.385Z,0.50
2022-07-25T19:08:20.127Z,0.50
2022-07-25T19:11:14.145Z,0.60
2022-07-25T19:14:04.757Z,0.50
2022-07-25T19:16:59.591Z,0.50
2022-07-25T19:19:49.707Z,0.40
2022-07-25T19:22:41.012Z,0.83
2022-07-25T19:25:30.392Z,0.40
2022-07-25T19:28:19.333Z,0.50
2022-07-25T19:31:08.558Z,0.40
2022-07-25T19:33:57.870Z,0.50
2022-07-25T19:36:46.931Z,0.40
2022-07-25T19:39:37.151Z,0.80
2022-07-25T19:42:26.074Z,0.50
2022-07-25T19:45:15.080Z,0.50
2022-07-25T19:48:04.015Z,0.40
2022-07-25T19:50:54.364Z,0.60
2022-07-25T19:53:43.234Z,0.43
2022-07-25T19:56:34.251Z,0.53
2022-07-25T19:59:23.178Z,0.50
2022-07-25T20:02:12.265Z,0.40
2022-07-25T20:05:01.242Z,0.87
2022-07-25T20:07:50.161Z,0.50
2022-07-25T20:10:39.105Z,0.40
2022-07-25T20:13:29.645Z,0.50
2022-07-25T20:16:18.892Z,0.83
2022-07-25T20:19:08.768Z,0.60
2022-07-25T20:21:58.327Z,0.60
2022-07-25T20:24:47.205Z,0.40
2022-07-25T20:27:36.252Z,0.40
2022-07-25T20:30:29.333Z,0.50
2022-07-25T20:33:23.733Z,0.40
2022-07-25T20:36:12.623Z,0.40
2022-07-25T20:39:02.805Z,0.40
2022-07-25T20:41:54.224Z,0.40
2022-07-25T20:44:43.363Z,0.40
2022-07-25T20:47:34.079Z,0.40
2022-07-25T20:50:24.252Z,0.40
2022-07-25T20:53:14.503Z,0.50
2022-07-25T20:56:03.471Z,0.50
2022-07-25T20:58:52.498Z,0.50
2022-07-25T21:01:47.030Z,0.50
2022-07-25T21:04:38.708Z,0.40
2022-07-25T21:08:00.038Z,0.50
2022-07-25T21:10:49.014Z,0.50
2022-07-25T21:13:38.305Z,0.50
2022-07-25T21:16:27.404Z,0.40
2022-07-25T21:19:20.958Z,0.50
2022-07-25T21:22:20.945Z,0.40
2022-07-25T21:25:12.935Z,0.40
2022-07-25T21:28:01.844Z,0.40
2022-07-25T21:30:50.882Z,0.97
2022-07-25T21:33:40.007Z,0.40
2022-07-25T21:36:29.015Z,0.50
2022-07-25T21:39:19.701Z,0.50
2022-07-25T21:42:10.941Z,0.50
2022-07-25T21:45:01.504Z,0.40
2022-07-25T21:47:51.945Z,0.40
2022-07-25T21:50:44.031Z,0.40
2022-07-25T21:53:34.413Z,0.50
2022-07-25T21:56:25.730Z,0.40
2022-07-25T21:59:15.853Z,0.40
2022-07-25T22:02:06.107Z,0.50
2022-07-25T22:04:54.963Z,0.50
2022-07-25T22:07:44.116Z,0.40
2022-07-25T22:10:33.536Z,0.40
2022-07-25T22:13:23.783Z,0.50
2022-07-25T22:16:13.330Z,0.60
2022-07-25T22:19:02.589Z,1.13
2022-07-25T22:21:51.651Z,0.40
2022-07-25T22:24:46.034Z,0.40
2022-07-25T22:27:35.585Z,0.40
2022-07-25T22:30:26.155Z,0.40
2022-07-25T22:33:15.079Z,0.40
2022-07-25T22:36:04.090Z,0.50
2022-07-25T22:38:53.041Z,0.40
2022-07-25T22:41:41.928Z,0.50
2022-07-25T22:44:30.976Z,0.67
2022-07-25T22:47:21.457Z,0.40
2022-07-25T22:50:11.320Z,0.40
2022-07-25T22:53:00.347Z,0.40
2022-07-25T22:55:49.297Z,0.40
2022-07-25T22:58:41.163Z,0.40
2022-07-25T23:01:30.221Z,0.40
2022-07-25T23:04:20.663Z,0.70
2022-07-25T23:07:09.734Z,0.40
2022-07-25T23:09:59.109Z,0.60
2022-07-25T23:12:48.134Z,0.40
2022-07-25T23:15:50.038Z,0.50
2022-07-25T23:18:40.571Z,0.83
2022-07-25T23:21:30.887Z,0.50
2022-07-25T23:24:19.799Z,0.40
2022-07-25T23:27:08.793Z,0.60
2022-07-25T23:29:57.818Z,0.40
2022-07-25T23:32:46.857Z,0.40
2022-07-25T23:35:35.863Z,1.90
2022-07-25T23:38:26.154Z,0.50
2022-07-25T23:41:15.232Z,0.50
2022-07-25T23:44:04.266Z,0.67
2022-07-25T23:46:56.462Z,0.40
2022-07-25T23:49:46.444Z,0.40
2022-07-25T23:52:37.033Z,0.40
2022-07-25T23:55:27.667Z,0.40
2022-07-25T23:58:16.783Z,0.50
